Terminal Aerodrome Forecast
Issued by NWS

Home | Current Version | Previous Version | Graphics & Text | Print | Product List | Glossary On
Versions: 1 2 3 4 5 6 7 8 9 10 11 12 13 14 15 16 17 18 19 20 21
542
FTUS43 KGRB 132327
TAFCWA
TAF
KCWA 132327Z 1400/1424 18007KT P6SM SCT050 BKN200
     FM140300 19003KT P6SM SCT080 BKN150
     FM141500 19007KT P6SM SCT035 BKN090
      TEMPO 1420/1424 -SHRA BKN035=

USA.gov is the U.S. government's official web portal to all federal, state and local government web resources and services.